sensor_id;sensor_type;location;lat;lon;timestamp;P1;durP1;ratioP1;P2;durP2;ratioP2
64816;SDS011;69037;45.634;11.704;2023-04-06T00:00:00;8.82;;;6.07;;
64816;SDS011;69037;45.634;11.704;2023-04-06T00:02:26;9.10;;;5.60;;
64816;SDS011;69037;45.634;11.704;2023-04-06T00:04:53;7.43;;;5.28;;
64816;SDS011;69037;45.634;11.704;2023-04-06T00:07:19;8.82;;;5.78;;
64816;SDS011;69037;45.634;11.704;2023-04-06T00:09:45;8.25;;;5.80;;
64816;SDS011;69037;45.634;11.704;2023-04-06T00:12:12;8.43;;;5.68;;
64816;SDS011;69037;45.634;11.704;2023-04-06T00:14:38;8.45;;;5.70;;
64816;SDS011;69037;45.634;11.704;2023-04-06T00:17:05;9.63;;;6.05;;
64816;SDS011;69037;45.634;11.704;2023-04-06T00:19:31;9.23;;;5.80;;
64816;SDS011;69037;45.634;11.704;2023-04-06T00:21:57;9.77;;;5.75;;
64816;SDS011;69037;45.634;11.704;2023-04-06T00:24:24;8.50;;;5.75;;
64816;SDS011;69037;45.634;11.704;2023-04-06T00:26:51;7.90;;;5.75;;
64816;SDS011;69037;45.634;11.704;2023-04-06T00:29:17;9.07;;;6.10;;
64816;SDS011;69037;45.634;11.704;2023-04-06T00:31:43;9.20;;;5.90;;
64816;SDS011;69037;45.634;11.704;2023-04-06T00:34:09;9.52;;;6.10;;
64816;SDS011;69037;45.634;11.704;2023-04-06T00:36:35;9.52;;;5.80;;
64816;SDS011;69037;45.634;11.704;2023-04-06T00:39:02;8.32;;;5.93;;
64816;SDS011;69037;45.634;11.704;2023-04-06T00:41:28;9.25;;;6.43;;
64816;SDS011;69037;45.634;11.704;2023-04-06T00:43:54;8.00;;;5.90;;
64816;SDS011;69037;45.634;11.704;2023-04-06T00:46:21;8.95;;;6.00;;
64816;SDS011;69037;45.634;11.704;2023-04-06T00:48:47;8.25;;;5.75;;
64816;SDS011;69037;45.634;11.704;2023-04-06T00:51:13;7.60;;;5.65;;
64816;SDS011;69037;45.634;11.704;2023-04-06T00:53:39;7.90;;;5.72;;
64816;SDS011;69037;45.634;11.704;2023-04-06T00:56:05;9.40;;;6.20;;
64816;SDS011;69037;45.634;11.704;2023-04-06T00:58:31;8.00;;;5.75;;
64816;SDS011;69037;45.634;11.704;2023-04-06T01:00:57;8.65;;;6.28;;
64816;SDS011;69037;45.634;11.704;2023-04-06T01:03:23;8.05;;;5.70;;
64816;SDS011;69037;45.634;11.704;2023-04-06T01:05:50;10.82;;;6.13;;
64816;SDS011;69037;45.634;11.704;2023-04-06T01:08:20;8.93;;;5.80;;
64816;SDS011;69037;45.634;11.704;2023-04-06T01:10:46;7.50;;;5.70;;
64816;SDS011;69037;45.634;11.704;2023-04-06T01:13:12;8.30;;;6.10;;
64816;SDS011;69037;45.634;11.704;2023-04-06T01:15:38;9.00;;;5.72;;
64816;SDS011;69037;45.634;11.704;2023-04-06T01:18:04;8.18;;;5.85;;
64816;SDS011;69037;45.634;11.704;2023-04-06T01:20:31;9.38;;;6.10;;
64816;SDS011;69037;45.634;11.704;2023-04-06T01:22:58;9.35;;;5.63;;
64816;SDS011;69037;45.634;11.704;2023-04-06T01:25:24;10.18;;;6.07;;
64816;SDS011;69037;45.634;11.704;2023-04-06T01:27:50;8.68;;;5.75;;
64816;SDS011;69037;45.634;11.704;2023-04-06T01:30:17;7.82;;;5.38;;
64816;SDS011;69037;45.634;11.704;2023-04-06T01:32:43;7.93;;;5.68;;
64816;SDS011;69037;45.634;11.704;2023-04-06T01:35:09;10.75;;;6.15;;
64816;SDS011;69037;45.634;11.704;2023-04-06T01:37:35;8.93;;;5.90;;
64816;SDS011;69037;45.634;11.704;2023-04-06T01:40:02;9.52;;;6.38;;
64816;SDS011;69037;45.634;11.704;2023-04-06T01:42:28;8.32;;;5.82;;
64816;SDS011;69037;45.634;11.704;2023-04-06T01:44:55;8.57;;;5.60;;
64816;SDS011;69037;45.634;11.704;2023-04-06T01:47:21;8.63;;;5.90;;
64816;SDS011;69037;45.634;11.704;2023-04-06T01:49:47;7.72;;;5.68;;
64816;SDS011;69037;45.634;11.704;2023-04-06T01:52:13;10.32;;;6.18;;
64816;SDS011;69037;45.634;11.704;2023-04-06T01:54:40;9.23;;;5.82;;
64816;SDS011;69037;45.634;11.704;2023-04-06T01:57:07;8.77;;;5.70;;
64816;SDS011;69037;45.634;11.704;2023-04-06T01:59:35;8.20;;;5.80;;
64816;SDS011;69037;45.634;11.704;2023-04-06T02:02:02;8.45;;;6.28;;
64816;SDS011;69037;45.634;11.704;2023-04-06T02:04:28;9.20;;;6.40;;
64816;SDS011;69037;45.634;11.704;2023-04-06T02:06:54;9.05;;;5.70;;
64816;SDS011;69037;45.634;11.704;2023-04-06T02:09:20;8.90;;;5.97;;
64816;SDS011;69037;45.634;11.704;2023-04-06T02:11:46;9.73;;;6.57;;
64816;SDS011;69037;45.634;11.704;2023-04-06T02:14:13;8.38;;;6.25;;
64816;SDS011;69037;45.634;11.704;2023-04-06T02:16:41;9.27;;;5.60;;
64816;SDS011;69037;45.634;11.704;2023-04-06T02:19:09;8.18;;;6.03;;
64816;SDS011;69037;45.634;11.704;2023-04-06T02:21:35;9.65;;;6.18;;
64816;SDS011;69037;45.634;11.704;2023-04-06T02:24:02;8.77;;;6.05;;
64816;SDS011;69037;45.634;11.704;2023-04-06T02:26:29;8.35;;;6.00;;
64816;SDS011;69037;45.634;11.704;2023-04-06T02:28:56;8.50;;;5.85;;
64816;SDS011;69037;45.634;11.704;2023-04-06T02:31:22;10.48;;;5.97;;
64816;SDS011;69037;45.634;11.704;2023-04-06T02:33:49;10.25;;;6.30;;
64816;SDS011;69037;45.634;11.704;2023-04-06T02:36:16;9.38;;;6.10;;
64816;SDS011;69037;45.634;11.704;2023-04-06T02:38:44;8.27;;;6.03;;
64816;SDS011;69037;45.634;11.704;2023-04-06T02:41:10;8.30;;;5.60;;
64816;SDS011;69037;45.634;11.704;2023-04-06T02:43:35;7.55;;;5.38;;
64816;SDS011;69037;45.634;11.704;2023-04-06T02:46:01;7.97;;;5.55;;
64816;SDS011;69037;45.634;11.704;2023-04-06T02:48:27;7.78;;;5.45;;
64816;SDS011;69037;45.634;11.704;2023-04-06T02:50:53;10.40;;;6.30;;
64816;SDS011;69037;45.634;11.704;2023-04-06T02:53:19;8.15;;;5.90;;
64816;SDS011;69037;45.634;11.704;2023-04-06T02:55:45;8.75;;;5.93;;
64816;SDS011;69037;45.634;11.704;2023-04-06T02:58:12;8.38;;;5.68;;
64816;SDS011;69037;45.634;11.704;2023-04-06T03:00:38;9.23;;;5.78;;
64816;SDS011;69037;45.634;11.704;2023-04-06T03:03:04;8.63;;;5.88;;
64816;SDS011;69037;45.634;11.704;2023-04-06T03:05:30;8.98;;;5.90;;
64816;SDS011;69037;45.634;11.704;2023-04-06T03:07:57;8.65;;;5.57;;
64816;SDS011;69037;45.634;11.704;2023-04-06T03:10:24;8.10;;;5.88;;
64816;SDS011;69037;45.634;11.704;2023-04-06T03:12:50;8.15;;;5.85;;
64816;SDS011;69037;45.634;11.704;2023-04-06T03:15:17;10.98;;;5.78;;
64816;SDS011;69037;45.634;11.704;2023-04-06T03:17:43;8.32;;;5.60;;
64816;SDS011;69037;45.634;11.704;2023-04-06T03:20:09;8.45;;;5.95;;
64816;SDS011;69037;45.634;11.704;2023-04-06T03:22:35;8.50;;;5.68;;
64816;SDS011;69037;45.634;11.704;2023-04-06T03:25:01;7.88;;;5.57;;
64816;SDS011;69037;45.634;11.704;2023-04-06T03:27:30;9.10;;;5.90;;
64816;SDS011;69037;45.634;11.704;2023-04-06T03:29:57;7.45;;;5.60;;
64816;SDS011;69037;45.634;11.704;2023-04-06T03:32:23;8.30;;;5.80;;
64816;SDS011;69037;45.634;11.704;2023-04-06T03:34:49;7.47;;;5.63;;
64816;SDS011;69037;45.634;11.704;2023-04-06T03:37:16;8.40;;;5.72;;
64816;SDS011;69037;45.634;11.704;2023-04-06T03:39:42;7.43;;;5.18;;
64816;SDS011;69037;45.634;11.704;2023-04-06T03:42:09;8.77;;;5.95;;
64816;SDS011;69037;45.634;11.704;2023-04-06T03:44:35;7.65;;;5.80;;
64816;SDS011;69037;45.634;11.704;2023-04-06T03:47:02;8.98;;;5.55;;
64816;SDS011;69037;45.634;11.704;2023-04-06T03:49:28;8.43;;;5.50;;
64816;SDS011;69037;45.634;11.704;2023-04-06T03:51:55;8.05;;;5.72;;
64816;SDS011;69037;45.634;11.704;2023-04-06T03:54:22;8.65;;;5.40;;
64816;SDS011;69037;45.634;11.704;2023-04-06T03:56:51;9.40;;;5.95;;
64816;SDS011;69037;45.634;11.704;2023-04-06T03:59:18;8.55;;;6.10;;
64816;SDS011;69037;45.634;11.704;2023-04-06T04:01:44;8.63;;;5.95;;
64816;SDS011;69037;45.634;11.704;2023-04-06T04:04:11;9.73;;;6.28;;
64816;SDS011;69037;45.634;11.704;2023-04-06T04:06:37;10.07;;;6.80;;
64816;SDS011;69037;45.634;11.704;2023-04-06T04:09:03;11.93;;;7.13;;
64816;SDS011;69037;45.634;11.704;2023-04-06T04:11:29;11.07;;;6.97;;
64816;SDS011;69037;45.634;11.704;2023-04-06T04:13:55;10.88;;;7.03;;
64816;SDS011;69037;45.634;11.704;2023-04-06T04:16:24;11.30;;;7.07;;
64816;SDS011;69037;45.634;11.704;2023-04-06T04:18:51;10.38;;;6.72;;
64816;SDS011;69037;45.634;11.704;2023-04-06T04:21:17;12.65;;;7.78;;
64816;SDS011;69037;45.634;11.704;2023-04-06T04:23:43;10.95;;;7.25;;
64816;SDS011;69037;45.634;11.704;2023-04-06T04:26:12;10.82;;;6.90;;
64816;SDS011;69037;45.634;11.704;2023-04-06T04:28:38;10.43;;;6.95;;
64816;SDS011;69037;45.634;11.704;2023-04-06T04:31:04;13.93;;;7.15;;
64816;SDS011;69037;45.634;11.704;2023-04-06T04:33:30;12.82;;;7.10;;
64816;SDS011;69037;45.634;11.704;2023-04-06T04:35:56;10.80;;;6.75;;
64816;SDS011;69037;45.634;11.704;2023-04-06T04:38:23;10.38;;;6.65;;
64816;SDS011;69037;45.634;11.704;2023-04-06T04:40:49;10.05;;;6.82;;
64816;SDS011;69037;45.634;11.704;2023-04-06T04:43:15;10.02;;;6.70;;
64816;SDS011;69037;45.634;11.704;2023-04-06T04:45:45;11.23;;;6.82;;
64816;SDS011;69037;45.634;11.704;2023-04-06T04:48:12;12.00;;;6.75;;
64816;SDS011;69037;45.634;11.704;2023-04-06T04:50:37;10.00;;;6.25;;
64816;SDS011;69037;45.634;11.704;2023-04-06T04:53:04;10.95;;;6.20;;
64816;SDS011;69037;45.634;11.704;2023-04-06T04:55:31;11.88;;;7.05;;
64816;SDS011;69037;45.634;11.704;2023-04-06T04:57:57;16.58;;;7.22;;
64816;SDS011;69037;45.634;11.704;2023-04-06T05:00:23;16.00;;;7.22;;
64816;SDS011;69037;45.634;11.704;2023-04-06T05:02:50;16.42;;;7.18;;
64816;SDS011;69037;45.634;11.704;2023-04-06T05:05:20;13.65;;;6.88;;
64816;SDS011;69037;45.634;11.704;2023-04-06T05:07:47;11.88;;;7.00;;
64816;SDS011;69037;45.634;11.704;2023-04-06T05:10:12;15.32;;;7.53;;
64816;SDS011;69037;45.634;11.704;2023-04-06T05:12:38;11.73;;;7.57;;
64816;SDS011;69037;45.634;11.704;2023-04-06T05:15:05;14.95;;;7.15;;
64816;SDS011;69037;45.634;11.704;2023-04-06T05:17:31;16.15;;;6.88;;
64816;SDS011;69037;45.634;11.704;2023-04-06T05:19:59;12.70;;;7.30;;
64816;SDS011;69037;45.634;11.704;2023-04-06T05:22:26;13.43;;;6.88;;
